createdAt,value
2023-12-03T00:01:45.452Z,2.14
2023-12-03T00:04:12.569Z,2.29
2023-12-03T00:06:41.964Z,2.31
2023-12-03T00:09:09.898Z,2.22
2023-12-03T00:11:36.760Z,2.41
2023-12-03T00:14:03.667Z,2.45
2023-12-03T00:16:30.403Z,2.46
2023-12-03T00:18:57.740Z,2.32
2023-12-03T00:21:24.607Z,2.40
2023-12-03T00:23:51.546Z,2.36
2023-12-03T00:26:18.381Z,2.29
2023-12-03T00:28:47.049Z,2.42
2023-12-03T00:31:13.879Z,2.35
2023-12-03T00:33:40.767Z,2.34
2023-12-03T00:36:07.960Z,2.36
2023-12-03T00:38:34.812Z,2.33
2023-12-03T00:41:01.538Z,2.30
2023-12-03T00:43:28.339Z,2.30
2023-12-03T00:45:55.391Z,2.29
2023-12-03T00:48:22.285Z,2.21
2023-12-03T00:50:50.030Z,2.28
2023-12-03T00:53:16.825Z,2.24
2023-12-03T00:55:43.570Z,2.29
2023-12-03T00:58:10.370Z,2.33
2023-12-03T01:00:37.126Z,2.39
2023-12-03T01:03:03.954Z,2.43
2023-12-03T01:05:30.754Z,2.57
2023-12-03T01:07:57.691Z,2.72
2023-12-03T01:10:24.532Z,2.83
2023-12-03T01:12:51.677Z,2.91
2023-12-03T01:15:18.508Z,2.86
2023-12-03T01:17:45.278Z,3.12
2023-12-03T01:20:12.362Z,3.19
2023-12-03T01:22:39.152Z,3.22
2023-12-03T01:25:06.315Z,3.30
2023-12-03T01:27:33.203Z,3.34
2023-12-03T01:30:00.203Z,3.43
2023-12-03T01:32:27.082Z,3.48
2023-12-03T01:34:53.901Z,3.44
2023-12-03T01:37:20.731Z,3.55
2023-12-03T01:39:47.731Z,3.57
2023-12-03T01:42:14.621Z,3.55
2023-12-03T01:44:41.425Z,3.57
2023-12-03T01:47:08.816Z,3.59
2023-12-03T01:49:36.380Z,3.58
2023-12-03T01:52:04.013Z,3.59
2023-12-03T01:54:36.473Z,3.54
2023-12-03T01:57:03.867Z,3.63
2023-12-03T01:59:32.603Z,3.72
2023-12-03T02:01:59.536Z,3.72
2023-12-03T02:04:26.409Z,3.70
2023-12-03T02:06:53.269Z,3.63
2023-12-03T02:09:21.343Z,3.81
2023-12-03T02:11:48.654Z,3.87
2023-12-03T02:14:15.673Z,3.92
2023-12-03T02:16:46.627Z,3.94
2023-12-03T02:19:13.503Z,3.99
2023-12-03T02:21:41.266Z,4.01
2023-12-03T02:24:08.165Z,4.02
2023-12-03T02:26:35.229Z,3.94
2023-12-03T02:29:02.052Z,4.00
2023-12-03T02:31:31.613Z,4.08
2023-12-03T02:34:07.892Z,4.09
2023-12-03T02:36:35.375Z,4.02
2023-12-03T02:39:02.865Z,4.09
2023-12-03T02:41:29.937Z,4.10
2023-12-03T02:43:56.887Z,4.13
2023-12-03T02:46:23.943Z,3.94
2023-12-03T02:48:51.209Z,4.07
2023-12-03T02:51:18.397Z,4.16
2023-12-03T02:53:46.416Z,4.16
2023-12-03T02:56:16.593Z,4.11
2023-12-03T02:58:43.389Z,4.02
2023-12-03T03:01:10.561Z,4.02
2023-12-03T03:03:37.476Z,4.18
2023-12-03T03:06:04.422Z,4.14
2023-12-03T03:08:31.236Z,4.12
2023-12-03T03:10:57.931Z,4.21
2023-12-03T03:13:24.702Z,4.14
2023-12-03T03:15:51.470Z,4.21
2023-12-03T03:18:18.318Z,4.47
2023-12-03T03:20:45.188Z,4.43
2023-12-03T03:23:11.915Z,4.42
2023-12-03T03:25:38.669Z,4.52
2023-12-03T03:28:05.467Z,4.44
2023-12-03T03:30:32.330Z,4.47
2023-12-03T03:32:59.199Z,4.54
2023-12-03T03:35:26.021Z,4.41
2023-12-03T03:37:52.750Z,4.33
2023-12-03T03:40:19.509Z,4.40
2023-12-03T03:42:46.283Z,4.42
2023-12-03T03:45:13.166Z,4.36
2023-12-03T03:47:40.089Z,4.51
2023-12-03T03:50:07.314Z,4.32
2023-12-03T03:52:34.062Z,4.53
2023-12-03T03:55:00.859Z,4.53
2023-12-03T03:57:27.712Z,4.59
2023-12-03T03:59:54.489Z,4.49
2023-12-03T04:02:21.366Z,4.44
2023-12-03T04:04:48.467Z,4.28
2023-12-03T04:07:15.491Z,4.60
2023-12-03T04:09:42.410Z,4.36
2023-12-03T04:12:09.208Z,4.42
2023-12-03T04:14:36.509Z,4.40
2023-12-03T04:17:04.646Z,4.50
2023-12-03T04:19:31.559Z,4.53
2023-12-03T04:21:58.335Z,4.43
2023-12-03T04:24:25.158Z,4.61
2023-12-03T04:26:52.056Z,4.44
2023-12-03T04:29:18.952Z,4.53
2023-12-03T04:31:45.716Z,4.29
2023-12-03T04:34:13.589Z,4.55
2023-12-03T04:36:43.137Z,4.24
2023-12-03T04:39:10.394Z,4.47
2023-12-03T04:41:39.005Z,4.47
2023-12-03T04:44:05.951Z,4.41
2023-12-03T04:46:32.831Z,4.43
2023-12-03T04:48:59.765Z,4.52
2023-12-03T04:51:26.861Z,4.42
2023-12-03T04:53:53.823Z,4.29
2023-12-03T04:56:20.563Z,4.28
2023-12-03T04:58:47.331Z,4.35
2023-12-03T05:01:17.188Z,4.42
2023-12-03T05:03:48.618Z,4.36
2023-12-03T05:06:15.714Z,4.45
2023-12-03T05:08:42.590Z,4.27
2023-12-03T05:11:09.691Z,4.25
2023-12-03T05:13:36.516Z,4.32
2023-12-03T05:16:07.668Z,4.23
2023-12-03T05:18:34.737Z,4.36
2023-12-03T05:21:02.791Z,4.30
2023-12-03T05:23:29.626Z,4.32
2023-12-03T05:25:58.178Z,4.53
2023-12-03T05:28:24.959Z,4.36
2023-12-03T05:30:51.819Z,4.55
2023-12-03T05:33:18.793Z,4.44
2023-12-03T05:35:45.718Z,4.42
2023-12-03T05:38:12.539Z,4.52
2023-12-03T05:40:39.439Z,4.50
2023-12-03T05:43:06.235Z,4.36
2023-12-03T05:45:33.082Z,4.48
2023-12-03T05:47:59.969Z,4.54
2023-12-03T05:50:26.740Z,4.54
2023-12-03T05:52:53.476Z,4.66
2023-12-03T05:55:20.763Z,4.41
2023-12-03T05:57:47.579Z,4.40
2023-12-03T06:00:14.967Z,4.59
2023-12-03T06:02:42.037Z,4.58
2023-12-03T06:05:09.012Z,4.48
2023-12-03T06:07:35.902Z,4.57
2023-12-03T06:10:02.869Z,4.28
2023-12-03T06:12:30.213Z,4.39
2023-12-03T06:14:56.994Z,4.51
2023-12-03T06:17:23.802Z,4.40
2023-12-03T06:19:50.657Z,4.47
2023-12-03T06:22:17.487Z,4.52
2023-12-03T06:24:44.348Z,4.47
2023-12-03T06:27:11.177Z,4.24
2023-12-03T06:29:37.936Z,4.17
2023-12-03T06:32:04.827Z,4.01
2023-12-03T06:34:31.644Z,4.03
2023-12-03T06:36:59.638Z,3.91
2023-12-03T06:39:26.564Z,3.59
2023-12-03T06:41:53.514Z,3.35
2023-12-03T06:44:31.000Z,3.42
2023-12-03T06:47:06.275Z,3.32
2023-12-03T06:49:34.472Z,3.33
2023-12-03T06:52:01.367Z,3.14
2023-12-03T06:54:28.372Z,3.10
2023-12-03T06:56:55.234Z,3.04
2023-12-03T06:59:22.034Z,2.90
2023-12-03T07:01:48.848Z,3.02
2023-12-03T07:04:15.554Z,2.99
2023-12-03T07:06:42.450Z,3.11
2023-12-03T07:09:36.263Z,2.97
2023-12-03T07:11:56.097Z,2.88
2023-12-03T07:14:22.824Z,2.77
2023-12-03T07:16:49.647Z,2.82
2023-12-03T07:19:16.418Z,2.79
2023-12-03T07:21:43.373Z,2.84
2023-12-03T07:24:10.137Z,2.85
2023-12-03T07:26:36.992Z,2.87
2023-12-03T07:29:03.963Z,2.82
2023-12-03T07:31:32.248Z,2.82
2023-12-03T07:33:59.042Z,2.81
2023-12-03T07:36:26.794Z,2.82
2023-12-03T07:38:53.600Z,2.92
2023-12-03T07:41:20.380Z,3.03
2023-12-03T07:43:47.168Z,3.10
2023-12-03T07:46:18.120Z,3.16
2023-12-03T07:48:45.847Z,3.30
2023-12-03T07:51:13.345Z,3.37
2023-12-03T07:53:41.267Z,3.31
2023-12-03T07:56:09.569Z,3.21
2023-12-03T07:58:37.268Z,3.34
2023-12-03T08:01:06.562Z,3.31
2023-12-03T08:03:33.913Z,3.39
2023-12-03T08:06:00.935Z,3.59
2023-12-03T08:08:27.862Z,3.69
2023-12-03T08:10:54.765Z,3.73
2023-12-03T08:13:21.627Z,3.90
2023-12-03T08:15:48.420Z,3.98
2023-12-03T08:18:15.289Z,4.30
2023-12-03T08:20:42.116Z,4.59
2023-12-03T08:23:08.963Z,4.71
2023-12-03T08:25:35.783Z,4.76
2023-12-03T08:28:03.795Z,4.92
2023-12-03T08:30:30.628Z,4.81
2023-12-03T08:32:57.649Z,4.76
2023-12-03T08:35:24.434Z,4.53
2023-12-03T08:37:51.236Z,4.35
2023-12-03T08:40:18.111Z,4.45
2023-12-03T08:42:45.768Z,4.39
2023-12-03T08:45:12.882Z,4.42
2023-12-03T08:47:39.770Z,4.44
2023-12-03T08:50:07.392Z,4.48
2023-12-03T08:52:34.567Z,4.43
2023-12-03T08:55:02.098Z,4.27
2023-12-03T08:57:28.902Z,4.48
2023-12-03T08:59:55.769Z,4.45
2023-12-03T09:02:22.805Z,4.62
2023-12-03T09:04:52.318Z,4.29
2023-12-03T09:07:19.383Z,4.45
2023-12-03T09:09:46.802Z,4.57
2023-12-03T09:12:15.274Z,4.55
2023-12-03T09:14:42.042Z,4.42
2023-12-03T09:17:08.894Z,4.81
2023-12-03T09:19:35.774Z,4.90
2023-12-03T09:22:02.801Z,4.65
2023-12-03T09:24:29.637Z,4.72
2023-12-03T09:26:56.465Z,4.76
2023-12-03T09:29:23.258Z,5.10
2023-12-03T09:31:50.026Z,4.87
2023-12-03T09:34:16.931Z,5.04
2023-12-03T09:36:43.783Z,5.06
2023-12-03T09:39:10.918Z,5.21
2023-12-03T09:41:49.340Z,5.12
2023-12-03T09:44:32.702Z,5.04
2023-12-03T09:47:00.611Z,5.11
2023-12-03T09:49:31.224Z,4.83
2023-12-03T09:52:03.802Z,5.39
2023-12-03T09:54:32.866Z,5.43
2023-12-03T09:57:00.716Z,5.56
2023-12-03T09:59:27.970Z,5.65
2023-12-03T10:01:58.655Z,5.91
2023-12-03T10:04:28.835Z,6.11
2023-12-03T10:06:59.661Z,6.38
2023-12-03T10:09:27.762Z,6.60
2023-12-03T10:11:56.576Z,6.58
2023-12-03T10:14:23.833Z,7.01
2023-12-03T10:16:51.361Z,7.17
2023-12-03T10:19:26.537Z,7.19
2023-12-03T10:21:54.722Z,7.83
2023-12-03T10:24:21.655Z,8.64
2023-12-03T10:26:52.947Z,10.68
2023-12-03T10:29:27.202Z,13.29
2023-12-03T10:31:54.618Z,16.24
2023-12-03T10:34:22.540Z,18.50
2023-12-03T10:36:51.129Z,20.42
2023-12-03T10:39:21.423Z,20.06
2023-12-03T10:41:50.667Z,19.89
2023-12-03T10:44:25.578Z,19.13
2023-12-03T10:46:52.386Z,18.91
2023-12-03T10:49:21.693Z,18.71
2023-12-03T10:51:49.000Z,17.12
2023-12-03T10:54:16.063Z,17.21
2023-12-03T10:56:44.560Z,16.15
2023-12-03T10:59:21.947Z,15.60
2023-12-03T11:01:55.026Z,14.60
2023-12-03T11:04:35.571Z,14.39
2023-12-03T11:07:07.506Z,14.55
2023-12-03T11:09:41.757Z,14.98
2023-12-03T11:12:10.658Z,15.84
2023-12-03T11:14:38.090Z,16.22
2023-12-03T11:17:18.938Z,17.78
2023-12-03T11:19:55.374Z,19.94
2023-12-03T11:22:47.902Z,21.67
2023-12-03T11:25:32.681Z,22.86
2023-12-03T11:27:59.613Z,23.89
2023-12-03T11:30:43.269Z,25.04
2023-12-03T11:33:16.554Z,25.00
2023-12-03T11:35:47.664Z,25.26
2023-12-03T11:38:23.433Z,24.90
2023-12-03T11:40:51.001Z,24.88
2023-12-03T11:43:27.578Z,25.38
2023-12-03T11:45:54.744Z,24.40
2023-12-03T11:48:23.952Z,25.62
2023-12-03T11:50:51.222Z,25.67
2023-12-03T11:53:18.501Z,24.52
2023-12-03T11:55:50.339Z,24.79
2023-12-03T11:58:18.190Z,25.36
2023-12-03T12:00:48.134Z,25.49
2023-12-03T12:03:15.276Z,24.92
2023-12-03T12:05:50.405Z,24.62
2023-12-03T12:08:21.164Z,22.04
2023-12-03T12:10:51.287Z,22.22
2023-12-03T12:13:20.365Z,20.41
2023-12-03T12:15:47.794Z,18.51
2023-12-03T12:18:14.725Z,18.20
2023-12-03T12:20:41.670Z,17.08
2023-12-03T12:23:08.481Z,15.73
2023-12-03T12:25:35.376Z,14.24
2023-12-03T12:28:02.459Z,13.58
2023-12-03T12:30:34.812Z,12.83
2023-12-03T12:33:04.034Z,12.52
2023-12-03T12:35:31.305Z,11.63
2023-12-03T12:38:01.416Z,11.26
2023-12-03T12:40:31.181Z,11.00
2023-12-03T12:43:13.893Z,10.48
2023-12-03T12:45:41.603Z,9.91
2023-12-03T12:48:25.470Z,9.71
2023-12-03T12:50:52.645Z,9.53
2023-12-03T12:53:20.109Z,9.02
2023-12-03T12:55:46.953Z,9.21
2023-12-03T12:58:13.814Z,8.94
2023-12-03T13:00:40.599Z,8.39
2023-12-03T13:03:07.451Z,8.66
2023-12-03T13:05:34.417Z,8.51
2023-12-03T13:08:01.752Z,8.15
2023-12-03T13:10:28.580Z,7.97
2023-12-03T13:12:55.549Z,7.99
2023-12-03T13:15:22.742Z,8.17
2023-12-03T13:17:55.595Z,8.02
2023-12-03T13:20:23.663Z,8.12
2023-12-03T13:22:51.160Z,7.85
2023-12-03T13:25:18.940Z,7.99
2023-12-03T13:27:46.033Z,7.95
2023-12-03T13:30:13.029Z,8.04
2023-12-03T13:32:41.822Z,7.86
2023-12-03T13:35:10.169Z,7.77
2023-12-03T13:37:37.593Z,7.85
2023-12-03T13:40:07.755Z,7.57
2023-12-03T13:42:35.684Z,7.82
2023-12-03T13:45:04.108Z,7.53
2023-12-03T13:47:33.417Z,7.46
2023-12-03T13:50:02.142Z,7.49
2023-12-03T13:52:29.340Z,7.31
2023-12-03T13:54:57.804Z,7.39
2023-12-03T13:57:24.765Z,7.54
2023-12-03T13:59:52.045Z,7.47
2023-12-03T14:02:27.995Z,7.70
2023-12-03T14:05:12.511Z,7.97
2023-12-03T14:07:47.775Z,7.84
2023-12-03T14:10:15.134Z,7.80
2023-12-03T14:12:42.306Z,7.67
2023-12-03T14:15:09.688Z,7.44
2023-12-03T14:17:36.587Z,7.39
2023-12-03T14:20:06.322Z,7.45
2023-12-03T14:22:33.624Z,7.40
2023-12-03T14:25:00.739Z,7.22
2023-12-03T14:27:27.736Z,7.16
2023-12-03T14:29:54.632Z,7.10
2023-12-03T14:32:21.640Z,7.18
2023-12-03T14:34:48.469Z,6.97
2023-12-03T14:37:15.321Z,6.96
2023-12-03T14:39:42.175Z,6.74
2023-12-03T14:42:09.096Z,6.31
2023-12-03T14:44:36.055Z,6.39
2023-12-03T14:47:03.459Z,6.40
2023-12-03T14:49:30.374Z,6.44
2023-12-03T14:51:57.267Z,6.25
2023-12-03T14:54:24.202Z,6.33
2023-12-03T14:56:51.464Z,6.31
2023-12-03T14:59:18.260Z,6.06
2023-12-03T15:01:46.419Z,6.34
2023-12-03T15:04:13.330Z,6.38
2023-12-03T15:06:40.165Z,6.37
2023-12-03T15:09:07.068Z,6.53
2023-12-03T15:11:33.868Z,6.34
2023-12-03T15:14:01.103Z,6.49
2023-12-03T15:16:29.853Z,6.50
2023-12-03T15:18:57.182Z,6.55
2023-12-03T15:21:24.237Z,6.47
2023-12-03T15:23:51.316Z,6.57
2023-12-03T15:26:18.237Z,6.43
2023-12-03T15:28:45.125Z,6.35
2023-12-03T15:31:12.464Z,5.99
2023-12-03T15:33:41.348Z,6.10
2023-12-03T15:36:09.036Z,6.08
2023-12-03T15:38:35.835Z,5.95
2023-12-03T15:41:02.620Z,5.97
2023-12-03T15:43:34.406Z,5.89
2023-12-03T15:46:08.754Z,5.85
2023-12-03T15:48:36.037Z,5.99
2023-12-03T15:51:03.330Z,5.90
2023-12-03T15:53:30.422Z,5.94
2023-12-03T15:55:57.677Z,5.92
2023-12-03T15:58:25.603Z,6.03
2023-12-03T16:00:53.030Z,5.92
2023-12-03T16:03:21.248Z,6.05
2023-12-03T16:05:48.499Z,6.24
2023-12-03T16:08:15.346Z,6.16
2023-12-03T16:10:42.204Z,6.19
2023-12-03T16:13:09.094Z,6.14
2023-12-03T16:15:36.017Z,6.03
2023-12-03T16:18:03.069Z,6.08
2023-12-03T16:20:30.081Z,5.96
2023-12-03T16:22:56.979Z,5.90
2023-12-03T16:25:24.792Z,5.98
2023-12-03T16:27:51.608Z,5.80
2023-12-03T16:30:18.544Z,5.81
2023-12-03T16:32:45.492Z,5.72
2023-12-03T16:35:12.879Z,5.61
2023-12-03T16:37:40.520Z,5.40
2023-12-03T16:40:08.914Z,5.40
2023-12-03T16:42:36.649Z,5.28
2023-12-03T16:45:04.080Z,5.19
2023-12-03T16:47:31.199Z,5.18
2023-12-03T16:49:59.758Z,5.32
2023-12-03T16:52:26.696Z,5.12
2023-12-03T16:54:55.135Z,5.13
2023-12-03T16:57:22.595Z,5.23
2023-12-03T16:59:50.025Z,5.33
2023-12-03T17:02:17.156Z,5.26
2023-12-03T17:04:44.787Z,5.41
2023-12-03T17:07:12.272Z,5.28
2023-12-03T17:09:39.392Z,5.45
2023-12-03T17:12:06.435Z,5.42
2023-12-03T17:14:33.374Z,5.53
2023-12-03T17:17:00.177Z,5.52
2023-12-03T17:19:27.119Z,5.41
2023-12-03T17:21:53.973Z,5.30
2023-12-03T17:24:20.849Z,5.27
2023-12-03T17:26:47.752Z,5.24
2023-12-03T17:29:14.622Z,5.34
2023-12-03T17:31:42.518Z,5.42
2023-12-03T17:34:09.610Z,5.17
2023-12-03T17:36:36.649Z,5.27
2023-12-03T17:39:07.894Z,5.25
2023-12-03T17:41:35.897Z,5.25
2023-12-03T17:44:03.012Z,5.30
2023-12-03T17:46:29.999Z,5.29
2023-12-03T17:48:57.063Z,5.37
2023-12-03T17:51:28.532Z,5.27
2023-12-03T17:53:55.471Z,5.44
2023-12-03T17:56:22.252Z,5.30
2023-12-03T17:58:49.055Z,5.32
2023-12-03T18:01:18.599Z,5.36
2023-12-03T18:03:46.870Z,5.25
2023-12-03T18:06:14.099Z,5.19
2023-12-03T18:08:40.994Z,5.23
2023-12-03T18:11:07.892Z,5.25
2023-12-03T18:13:34.679Z,5.29
2023-12-03T18:16:01.748Z,5.19
2023-12-03T18:18:28.864Z,5.10
2023-12-03T18:20:56.044Z,5.08
2023-12-03T18:23:24.311Z,4.97
2023-12-03T18:25:54.298Z,5.01
2023-12-03T18:28:21.136Z,5.01
2023-12-03T18:30:48.858Z,4.96
2023-12-03T18:33:18.739Z,4.96
2023-12-03T18:35:46.726Z,4.94
2023-12-03T18:38:13.641Z,4.87
2023-12-03T18:40:44.196Z,4.91
2023-12-03T18:43:11.287Z,4.75
2023-12-03T18:45:38.305Z,4.92
2023-12-03T18:48:05.570Z,4.74
2023-12-03T18:50:32.461Z,4.68
2023-12-03T18:53:00.148Z,4.72
2023-12-03T18:55:26.990Z,4.78
2023-12-03T18:57:54.038Z,4.71
2023-12-03T19:00:22.011Z,4.80
2023-12-03T19:02:49.766Z,4.85
2023-12-03T19:05:17.385Z,4.76
2023-12-03T19:07:50.273Z,4.86
2023-12-03T19:10:19.669Z,4.84
2023-12-03T19:12:51.054Z,4.78
2023-12-03T19:15:22.560Z,4.75
2023-12-03T19:17:49.415Z,4.83
2023-12-03T19:20:16.297Z,4.92
2023-12-03T19:22:43.171Z,4.78
2023-12-03T19:25:09.920Z,4.96
2023-12-03T19:27:36.861Z,5.02
2023-12-03T19:30:03.911Z,4.94
2023-12-03T19:32:31.129Z,4.95
2023-12-03T19:34:58.167Z,5.14
2023-12-03T19:37:25.117Z,5.17
2023-12-03T19:39:52.330Z,5.12
2023-12-03T19:42:19.268Z,5.22
2023-12-03T19:44:46.068Z,5.34
2023-12-03T19:47:13.027Z,5.28
2023-12-03T19:49:39.801Z,5.28
2023-12-03T19:52:07.003Z,5.27
2023-12-03T19:54:33.839Z,5.14
2023-12-03T19:57:01.906Z,5.19
2023-12-03T19:59:29.375Z,5.05
2023-12-03T20:01:57.500Z,4.90
2023-12-03T20:04:24.521Z,4.88
2023-12-03T20:06:51.860Z,5.08
2023-12-03T20:09:18.845Z,4.88
2023-12-03T20:11:45.632Z,4.85
2023-12-03T20:14:12.473Z,4.91
2023-12-03T20:16:39.330Z,4.88
2023-12-03T20:19:07.464Z,4.87
2023-12-03T20:21:34.439Z,4.84
2023-12-03T20:24:01.264Z,4.80
2023-12-03T20:26:28.034Z,4.75
2023-12-03T20:28:54.829Z,4.82
2023-12-03T20:31:22.609Z,4.67
2023-12-03T20:33:49.650Z,4.65
2023-12-03T20:36:16.572Z,4.69
2023-12-03T20:38:43.410Z,4.60
2023-12-03T20:41:23.287Z,4.60
2023-12-03T20:43:50.845Z,4.68
2023-12-03T20:46:18.636Z,4.54
2023-12-03T20:48:46.124Z,4.58
2023-12-03T20:51:14.170Z,4.65
2023-12-03T20:53:41.732Z,4.62
2023-12-03T20:56:10.242Z,4.42
2023-12-03T20:58:37.062Z,4.53
2023-12-03T21:01:04.244Z,4.45
2023-12-03T21:03:31.328Z,4.38
2023-12-03T21:05:58.969Z,4.25
2023-12-03T21:08:25.824Z,4.13
2023-12-03T21:10:52.581Z,4.18
2023-12-03T21:13:19.783Z,4.28
2023-12-03T21:15:46.746Z,4.31
2023-12-03T21:18:13.676Z,4.19
2023-12-03T21:20:40.520Z,4.24
2023-12-03T21:23:07.415Z,4.22
2023-12-03T21:25:35.036Z,4.17
2023-12-03T21:28:02.088Z,3.94
2023-12-03T21:30:29.371Z,4.12
2023-12-03T21:32:57.964Z,4.13
2023-12-03T21:35:25.020Z,4.07
2023-12-03T21:37:51.931Z,4.11
2023-12-03T21:40:18.695Z,4.01
2023-12-03T21:42:45.681Z,4.22
2023-12-03T21:45:12.611Z,4.15
2023-12-03T21:47:39.587Z,4.11
2023-12-03T21:50:07.305Z,4.22
2023-12-03T21:52:34.161Z,4.24
2023-12-03T21:55:01.302Z,4.32
2023-12-03T21:57:28.245Z,4.43
2023-12-03T21:59:55.144Z,4.46
2023-12-03T22:02:22.121Z,4.33
2023-12-03T22:04:49.552Z,4.36
2023-12-03T22:07:16.498Z,4.17
2023-12-03T22:09:43.361Z,4.36
2023-12-03T22:12:10.146Z,4.33
2023-12-03T22:14:37.016Z,4.34
2023-12-03T22:17:05.592Z,4.37
2023-12-03T22:19:32.734Z,4.35
2023-12-03T22:21:59.899Z,4.31
2023-12-03T22:24:27.264Z,4.27
2023-12-03T22:26:54.300Z,4.20
2023-12-03T22:29:29.769Z,4.13
2023-12-03T22:32:04.386Z,4.20
2023-12-03T22:34:31.350Z,4.13
2023-12-03T22:36:58.224Z,4.17
2023-12-03T22:39:25.572Z,4.17
2023-12-03T22:41:52.423Z,4.29
2023-12-03T22:44:19.178Z,4.24
2023-12-03T22:46:46.032Z,4.19
2023-12-03T22:49:17.607Z,4.22
2023-12-03T22:51:44.578Z,4.16
2023-12-03T22:54:11.500Z,4.15
2023-12-03T22:56:38.252Z,4.05
2023-12-03T22:59:05.119Z,4.06
2023-12-03T23:01:31.899Z,4.15
2023-12-03T23:03:58.810Z,4.09
2023-12-03T23:06:25.805Z,4.13
2023-12-03T23:08:52.656Z,4.08
2023-12-03T23:11:19.589Z,4.05
2023-12-03T23:13:46.566Z,4.01
2023-12-03T23:16:13.580Z,3.98
2023-12-03T23:18:42.219Z,3.91
2023-12-03T23:21:09.158Z,3.90
2023-12-03T23:23:35.964Z,3.95
2023-12-03T23:26:02.814Z,3.94
2023-12-03T23:28:29.802Z,3.92
2023-12-03T23:30:56.885Z,3.85
2023-12-03T23:33:23.945Z,3.87
2023-12-03T23:35:50.807Z,3.84
2023-12-03T23:38:17.606Z,3.83
2023-12-03T23:40:44.389Z,3.82
2023-12-03T23:43:11.240Z,3.82
2023-12-03T23:45:38.022Z,3.80
2023-12-03T23:48:05.015Z,3.81
2023-12-03T23:50:31.840Z,3.76
2023-12-03T23:52:58.915Z,3.87
2023-12-03T23:55:26.176Z,3.76
2023-12-03T23:57:53.034Z,3.81
